createdAt,value
2022-08-10T00:01:55.949Z,2.47
2022-08-10T00:04:26.672Z,2.90
2022-08-10T00:06:55.781Z,2.23
2022-08-10T00:09:24.907Z,2.20
2022-08-10T00:11:52.728Z,2.43
2022-08-10T00:14:20.587Z,2.30
2022-08-10T00:16:48.470Z,2.40
2022-08-10T00:19:17.266Z,2.40
2022-08-10T00:21:48.267Z,2.70
2022-08-10T00:24:17.074Z,2.60
2022-08-10T00:27:58.683Z,2.40
2022-08-10T00:29:32.939Z,2.30
2022-08-10T00:32:00.696Z,2.53
2022-08-10T00:34:34.931Z,2.23
2022-08-10T00:37:02.796Z,2.20
2022-08-10T00:39:34.548Z,2.63
2022-08-10T00:42:09.091Z,2.57
2022-08-10T00:44:50.103Z,2.30
2022-08-10T00:47:36.219Z,2.73
2022-08-10T00:50:08.795Z,2.10
2022-08-10T00:52:40.191Z,3.00
2022-08-10T00:55:08.785Z,2.27
2022-08-10T00:57:39.083Z,2.60
2022-08-10T01:00:10.185Z,2.87
2022-08-10T01:02:38.309Z,2.93
2022-08-10T01:05:12.562Z,2.93
2022-08-10T01:08:27.829Z,3.00
2022-08-10T01:12:37.133Z,2.73
2022-08-10T01:15:00.127Z,3.10
2022-08-10T01:18:28.758Z,3.10
2022-08-10T01:21:26.333Z,3.60
2022-08-10T01:25:29.415Z,2.80
2022-08-10T01:28:39.322Z,2.80
2022-08-10T01:31:14.845Z,3.20
2022-08-10T01:34:18.212Z,2.43
2022-08-10T01:36:55.934Z,3.10
2022-08-10T01:39:39.578Z,2.97
2022-08-10T01:42:13.374Z,3.00
2022-08-10T01:44:57.542Z,3.20
2022-08-10T01:47:54.524Z,2.60
2022-08-10T01:50:58.989Z,2.70
2022-08-10T01:53:52.176Z,3.80
2022-08-10T01:56:28.385Z,3.17
2022-08-10T01:59:33.002Z,3.60
2022-08-10T02:02:15.551Z,3.47
2022-08-10T02:04:51.193Z,3.00
2022-08-10T02:07:27.798Z,3.50
2022-08-10T02:10:04.875Z,4.10
2022-08-10T02:12:36.998Z,3.60
2022-08-10T02:15:19.839Z,3.90
2022-08-10T02:18:02.097Z,3.50
2022-08-10T02:20:45.628Z,4.00
2022-08-10T02:23:27.790Z,3.40
2022-08-10T02:26:02.694Z,3.03
2022-08-10T02:28:36.024Z,3.40
2022-08-10T02:31:23.422Z,2.93
2022-08-10T02:33:57.301Z,3.00
2022-08-10T02:36:34.305Z,4.00
2022-08-10T02:39:07.637Z,3.70
2022-08-10T02:45:08.204Z,4.00
2022-08-10T02:45:29.315Z,3.33
2022-08-10T02:48:21.596Z,3.30
2022-08-10T02:51:05.523Z,3.67
2022-08-10T02:53:49.469Z,3.30
2022-08-10T02:56:43.389Z,3.70
2022-08-10T02:59:53.034Z,3.87
2022-08-10T03:02:38.348Z,3.47
2022-08-10T03:05:19.345Z,4.27
2022-08-10T03:08:02.120Z,3.57
2022-08-10T03:10:44.077Z,3.60
2022-08-10T03:13:18.054Z,3.60
2022-08-10T03:15:47.970Z,3.97
2022-08-10T03:18:18.700Z,3.90
2022-08-10T03:20:49.765Z,3.83
2022-08-10T03:23:24.122Z,4.50
2022-08-10T03:25:59.175Z,3.73
2022-08-10T03:28:34.002Z,4.60
2022-08-10T03:31:03.901Z,3.60
2022-08-10T03:33:40.178Z,4.10
2022-08-10T03:36:40.447Z,3.57
2022-08-10T03:38:56.856Z,4.00
2022-08-10T03:41:38.718Z,3.80
2022-08-10T03:44:10.668Z,4.40
2022-08-10T03:46:46.057Z,4.20
2022-08-10T03:49:18.205Z,4.33
2022-08-10T03:51:49.508Z,3.60
2022-08-10T03:54:19.631Z,4.90
2022-08-10T03:56:48.596Z,5.10
2022-08-10T03:59:18.141Z,5.17
2022-08-10T04:02:52.547Z,4.30
2022-08-10T04:04:35.459Z,3.63
2022-08-10T04:07:05.754Z,4.73
2022-08-10T04:09:54.637Z,4.27
2022-08-10T04:12:24.778Z,4.97
2022-08-10T04:14:53.095Z,4.30
2022-08-10T04:18:00.242Z,4.57
2022-08-10T04:20:50.321Z,4.13
2022-08-10T04:23:31.846Z,4.80
2022-08-10T04:26:00.606Z,4.90
2022-08-10T04:28:28.969Z,4.73
2022-08-10T04:31:03.491Z,4.10
2022-08-10T04:33:35.071Z,4.30
2022-08-10T04:36:06.641Z,4.23
2022-08-10T04:38:36.830Z,4.40
2022-08-10T04:41:05.671Z,4.73
2022-08-10T04:43:33.539Z,4.63
2022-08-10T04:46:01.295Z,5.30
2022-08-10T04:48:42.990Z,4.60
2022-08-10T04:51:19.300Z,4.13
2022-08-10T04:54:04.738Z,4.20
2022-08-10T04:56:39.408Z,4.53
2022-08-10T04:59:10.927Z,4.87
2022-08-10T05:02:30.357Z,4.50
2022-08-10T05:04:34.592Z,4.93
2022-08-10T05:07:18.455Z,4.67
2022-08-10T05:10:02.436Z,4.07
2022-08-10T05:12:40.110Z,4.73
2022-08-10T05:15:13.311Z,5.00
2022-08-10T05:18:08.075Z,4.80
2022-08-10T05:20:30.810Z,5.13
2022-08-10T05:22:58.982Z,4.57
2022-08-10T05:25:26.489Z,4.47
2022-08-10T05:27:56.533Z,4.30
2022-08-10T05:30:25.648Z,4.43
2022-08-10T05:32:56.657Z,4.20
2022-08-10T05:35:55.053Z,4.27
2022-08-10T05:38:24.905Z,4.90
2022-08-10T05:40:54.529Z,4.30
2022-08-10T05:43:24.358Z,4.77
2022-08-10T05:46:17.840Z,4.40
2022-08-10T05:48:58.677Z,4.30
2022-08-10T05:51:30.820Z,4.17
2022-08-10T05:54:06.064Z,4.07
2022-08-10T05:56:53.978Z,4.53
2022-08-10T06:00:33.324Z,3.90
2022-08-10T06:02:52.305Z,4.00
2022-08-10T06:05:37.198Z,3.97
2022-08-10T06:08:26.864Z,3.60
2022-08-10T06:12:24.408Z,3.80
2022-08-10T06:14:16.661Z,3.30
2022-08-10T06:16:48.015Z,3.17
2022-08-10T06:19:16.761Z,3.30
2022-08-10T06:22:00.368Z,3.50
2022-08-10T06:25:04.676Z,3.43
2022-08-10T06:27:34.420Z,3.63
2022-08-10T06:30:03.989Z,3.20
2022-08-10T06:32:56.774Z,2.83
2022-08-10T06:35:32.097Z,3.00
2022-08-10T06:38:06.079Z,2.70
2022-08-10T06:40:46.030Z,3.47
2022-08-10T06:43:21.350Z,2.63
2022-08-10T06:46:07.164Z,2.73
2022-08-10T06:48:52.754Z,2.50
2022-08-10T06:51:41.205Z,3.10
2022-08-10T06:54:14.368Z,2.93
2022-08-10T06:57:01.749Z,2.70
2022-08-10T06:59:46.498Z,2.90
2022-08-10T07:02:34.467Z,2.80
2022-08-10T07:05:11.926Z,2.57
2022-08-10T07:07:45.927Z,2.77
2022-08-10T07:10:20.973Z,2.53
2022-08-10T07:12:53.440Z,2.73
2022-08-10T07:15:24.133Z,2.67
2022-08-10T07:18:14.495Z,3.07
2022-08-10T07:20:56.199Z,3.00
2022-08-10T07:23:56.972Z,2.90
2022-08-10T07:26:23.439Z,3.20
2022-08-10T07:28:54.112Z,2.80
2022-08-10T07:31:54.462Z,2.60
2022-08-10T07:34:29.441Z,3.50
2022-08-10T07:37:08.806Z,3.20
2022-08-10T07:40:01.918Z,2.93
2022-08-10T07:42:54.966Z,2.70
2022-08-10T07:45:33.695Z,2.80
2022-08-10T07:48:49.311Z,2.40
2022-08-10T07:51:27.655Z,2.43
2022-08-10T07:54:07.637Z,3.13
2022-08-10T07:56:49.394Z,2.23
2022-08-10T07:59:57.064Z,2.70
2022-08-10T08:02:58.681Z,2.40
2022-08-10T08:05:58.972Z,2.70
2022-08-10T08:08:42.448Z,3.33
2022-08-10T08:11:25.965Z,3.73
2022-08-10T08:14:01.147Z,2.80
2022-08-10T08:16:52.146Z,2.87
2022-08-10T08:19:37.319Z,3.00
2022-08-10T08:24:13.641Z,2.70
2022-08-10T08:25:01.593Z,2.93
2022-08-10T08:27:32.736Z,2.70
2022-08-10T08:30:02.465Z,2.77
2022-08-10T08:32:37.820Z,2.30
2022-08-10T08:35:17.263Z,2.77
2022-08-10T08:38:31.491Z,2.17
2022-08-10T08:41:47.543Z,2.77
2022-08-10T08:45:34.649Z,2.70
2022-08-10T08:48:31.231Z,2.53
2022-08-10T08:52:09.941Z,2.57
2022-08-10T08:56:02.946Z,2.87
2022-08-10T08:59:19.133Z,2.97
2022-08-10T09:02:26.735Z,3.20
2022-08-10T09:06:16.812Z,3.37
2022-08-10T09:09:37.045Z,2.57
2022-08-10T09:12:44.160Z,2.67
2022-08-10T09:15:40.205Z,3.63
2022-08-10T09:19:35.035Z,2.70
2022-08-10T09:22:26.354Z,2.93
2022-08-10T09:25:37.033Z,3.07
2022-08-10T09:28:14.507Z,2.50
2022-08-10T09:31:21.437Z,2.80
2022-08-10T09:36:23.506Z,3.03
2022-08-10T09:37:39.889Z,3.10
2022-08-10T09:40:59.305Z,2.67
2022-08-10T09:44:06.398Z,3.37
2022-08-10T09:47:15.816Z,2.90
2022-08-10T09:50:23.630Z,2.80
2022-08-10T09:54:16.201Z,2.80
2022-08-10T09:57:55.259Z,3.17
2022-08-10T10:00:31.226Z,3.10
2022-08-10T10:03:56.108Z,3.47
2022-08-10T10:06:58.550Z,3.30
2022-08-10T10:10:02.411Z,3.00
2022-08-10T10:13:11.940Z,2.93
2022-08-10T10:16:46.860Z,3.27
2022-08-10T10:19:45.142Z,3.13
2022-08-10T10:23:18.592Z,3.50
2022-08-10T10:26:05.003Z,3.73
2022-08-10T10:29:56.484Z,2.90
2022-08-10T10:32:57.686Z,3.13
2022-08-10T10:36:00.495Z,3.70
2022-08-10T10:38:42.780Z,3.40
2022-08-10T10:42:35.137Z,3.87
2022-08-10T10:46:08.231Z,3.83
2022-08-10T10:49:36.912Z,3.10
2022-08-10T10:52:39.578Z,3.50
2022-08-10T10:55:30.426Z,2.97
2022-08-10T10:58:27.872Z,3.10
2022-08-10T11:01:23.049Z,2.80
2022-08-10T11:04:52.876Z,2.67
2022-08-10T11:07:39.757Z,3.20
2022-08-10T11:10:32.463Z,3.67
2022-08-10T11:14:26.650Z,2.63
2022-08-10T11:17:05.482Z,3.07
2022-08-10T11:20:46.222Z,3.03
2022-08-10T11:24:46.751Z,2.93
2022-08-10T11:27:22.259Z,2.87
2022-08-10T11:30:13.354Z,2.80
2022-08-10T11:32:50.346Z,3.30
2022-08-10T11:36:00.630Z,2.87
2022-08-10T11:39:16.645Z,2.80
2022-08-10T11:43:06.934Z,2.70
2022-08-10T11:45:54.774Z,3.17
2022-08-10T11:49:06.320Z,3.10
2022-08-10T11:51:57.269Z,2.80
2022-08-10T11:54:54.177Z,2.80
2022-08-10T11:57:53.497Z,2.43
2022-08-10T12:00:20.441Z,1.87
2022-08-10T12:03:05.891Z,1.90
2022-08-10T12:05:52.669Z,1.90
2022-08-10T12:10:02.057Z,1.97
2022-08-10T12:11:29.291Z,2.13
2022-08-10T12:14:28.805Z,2.10
2022-08-10T12:17:16.331Z,2.03
2022-08-10T12:20:09.049Z,2.17
2022-08-10T12:23:05.175Z,2.80
2022-08-10T12:26:07.605Z,1.90
2022-08-10T12:29:31.538Z,2.00
2022-08-10T12:32:32.821Z,2.70
2022-08-10T12:36:18.003Z,2.00
2022-08-10T12:39:25.668Z,2.67
2022-08-10T12:42:39.318Z,2.40
2022-08-10T12:46:06.525Z,1.63
2022-08-10T12:49:00.538Z,2.20
2022-08-10T12:51:33.762Z,1.90
2022-08-10T12:54:16.681Z,3.03
2022-08-10T12:57:17.351Z,2.47
2022-08-10T13:00:01.585Z,2.00
2022-08-10T13:02:48.931Z,2.13
2022-08-10T13:05:17.775Z,2.63
2022-08-10T13:08:26.825Z,2.20
2022-08-10T13:12:33.802Z,2.20
2022-08-10T13:14:15.709Z,2.20
2022-08-10T13:16:48.491Z,2.27
2022-08-10T13:19:21.932Z,2.03
2022-08-10T13:21:53.126Z,1.83
2022-08-10T13:24:34.105Z,2.43
2022-08-10T13:27:27.140Z,2.40
2022-08-10T13:30:10.249Z,2.13
2022-08-10T13:32:51.988Z,1.80
2022-08-10T13:35:25.409Z,2.00
2022-08-10T13:37:56.413Z,1.80
2022-08-10T13:40:29.357Z,2.10
2022-08-10T13:43:06.103Z,2.10
2022-08-10T13:45:47.722Z,2.30
2022-08-10T13:48:26.819Z,2.30
2022-08-10T13:51:03.602Z,1.87
2022-08-10T13:53:35.057Z,1.87
2022-08-10T13:56:05.462Z,1.87
2022-08-10T13:58:42.677Z,1.50
2022-08-10T14:01:25.414Z,2.27
2022-08-10T14:03:54.899Z,2.13
2022-08-10T14:06:29.679Z,2.10
2022-08-10T14:09:06.584Z,1.93
2022-08-10T14:11:42.113Z,2.00
2022-08-10T14:14:21.951Z,2.00
2022-08-10T14:16:51.829Z,1.50
2022-08-10T14:19:36.737Z,1.73
2022-08-10T14:22:19.677Z,1.90
2022-08-10T14:25:15.975Z,1.60
2022-08-10T14:28:03.671Z,2.00
2022-08-10T14:30:35.048Z,2.10
2022-08-10T14:33:12.916Z,2.10
2022-08-10T14:36:21.109Z,1.67
2022-08-10T14:38:42.773Z,2.10
2022-08-10T14:42:03.002Z,2.07
2022-08-10T14:44:21.988Z,1.90
2022-08-10T14:47:51.387Z,1.60
2022-08-10T14:49:58.179Z,1.87
2022-08-10T14:52:29.826Z,2.40
2022-08-10T14:55:05.514Z,1.60
2022-08-10T14:58:16.861Z,1.60
2022-08-10T15:00:43.680Z,2.03
2022-08-10T15:03:59.565Z,1.90
2022-08-10T15:06:16.991Z,1.93
2022-08-10T15:08:48.070Z,1.40
2022-08-10T15:12:11.890Z,1.93
2022-08-10T15:14:38.739Z,2.13
2022-08-10T15:16:59.648Z,1.80
2022-08-10T15:20:02.422Z,1.90
2022-08-10T15:22:37.589Z,2.50
2022-08-10T15:25:19.301Z,2.07
2022-08-10T15:28:10.526Z,1.70
2022-08-10T15:30:51.882Z,2.33
2022-08-10T15:34:02.206Z,1.80
2022-08-10T15:37:36.507Z,1.80
2022-08-10T15:40:24.842Z,2.10
2022-08-10T15:43:25.069Z,2.03
2022-08-10T15:46:15.202Z,2.20
2022-08-10T15:49:10.151Z,2.10
2022-08-10T15:52:39.858Z,1.90
2022-08-10T15:55:41.863Z,2.53
2022-08-10T15:58:53.747Z,2.30
2022-08-10T16:02:12.294Z,2.33
2022-08-10T16:05:11.342Z,1.57
2022-08-10T16:08:08.692Z,2.63
2022-08-10T16:11:04.028Z,2.00
2022-08-10T16:13:50.974Z,2.07
2022-08-10T16:16:37.828Z,2.03
2022-08-10T16:19:13.679Z,1.87
2022-08-10T16:22:35.538Z,2.43
2022-08-10T16:25:00.766Z,1.50
2022-08-10T16:27:32.957Z,1.93
2022-08-10T16:30:06.180Z,2.30
2022-08-10T16:32:38.403Z,1.77
2022-08-10T16:35:15.648Z,1.87
2022-08-10T16:37:57.286Z,1.97
2022-08-10T16:40:30.650Z,1.93
2022-08-10T16:43:04.937Z,2.07
2022-08-10T16:45:52.875Z,2.00
2022-08-10T16:48:49.780Z,1.70
2022-08-10T16:51:24.305Z,1.97
2022-08-10T16:54:00.824Z,1.70
2022-08-10T16:56:48.519Z,1.77
2022-08-10T16:59:24.699Z,2.03
2022-08-10T17:01:57.526Z,1.90
2022-08-10T17:04:28.016Z,2.13
2022-08-10T17:07:08.734Z,1.33
2022-08-10T17:09:47.960Z,1.90
2022-08-10T17:12:26.922Z,1.90
2022-08-10T17:15:09.480Z,2.10
2022-08-10T17:17:52.285Z,1.70
2022-08-10T17:20:40.540Z,2.43
2022-08-10T17:23:14.074Z,2.10
2022-08-10T17:25:51.128Z,1.67
2022-08-10T17:28:35.320Z,2.03
2022-08-10T17:31:53.994Z,2.00
2022-08-10T17:34:30.477Z,1.70
2022-08-10T17:37:16.967Z,2.20
2022-08-10T17:40:16.688Z,1.83
2022-08-10T17:42:50.641Z,2.17
2022-08-10T17:45:47.767Z,1.90
2022-08-10T17:48:30.829Z,1.80
2022-08-10T17:51:02.213Z,1.73
2022-08-10T17:53:58.219Z,2.30
2022-08-10T17:56:41.144Z,1.90
2022-08-10T17:59:17.000Z,2.00
2022-08-10T18:02:01.603Z,2.47
2022-08-10T18:04:42.145Z,2.10
2022-08-10T18:07:12.333Z,1.73
2022-08-10T18:09:55.032Z,1.70
2022-08-10T18:12:38.538Z,2.17
2022-08-10T18:15:15.865Z,1.90
2022-08-10T18:18:00.975Z,2.30
2022-08-10T18:20:39.900Z,2.50
2022-08-10T18:23:10.456Z,2.03
2022-08-10T18:25:46.215Z,2.00
2022-08-10T18:28:22.649Z,2.23
2022-08-10T18:30:55.609Z,2.30
2022-08-10T18:33:44.573Z,1.93
2022-08-10T18:36:16.730Z,1.87
2022-08-10T18:38:53.576Z,2.17
2022-08-10T18:42:05.223Z,2.00
2022-08-10T18:45:01.173Z,2.40
2022-08-10T18:48:17.957Z,1.83
2022-08-10T18:51:03.658Z,1.77
2022-08-10T18:53:59.482Z,2.10
2022-08-10T18:56:58.643Z,2.30
2022-08-10T19:00:12.136Z,1.70
2022-08-10T19:03:13.809Z,2.17
2022-08-10T19:07:03.551Z,2.20
2022-08-10T19:10:21.885Z,2.20
2022-08-10T19:13:21.266Z,2.20
2022-08-10T19:16:39.029Z,2.30
2022-08-10T19:20:21.835Z,2.20
2022-08-10T19:23:54.542Z,2.13
2022-08-10T19:27:00.375Z,2.20
2022-08-10T19:30:11.996Z,2.27
2022-08-10T19:33:13.680Z,2.33
2022-08-10T19:36:24.053Z,1.90
2022-08-10T19:39:30.957Z,2.30
2022-08-10T19:42:31.025Z,2.63
2022-08-10T19:46:03.086Z,1.90
2022-08-10T19:49:47.378Z,1.90
2022-08-10T19:52:38.319Z,3.00
2022-08-10T19:55:38.870Z,2.33
2022-08-10T19:59:10.325Z,2.40
2022-08-10T20:01:55.697Z,2.70
2022-08-10T20:04:54.146Z,2.03
2022-08-10T20:08:09.273Z,2.43
2022-08-10T20:11:10.564Z,2.00
2022-08-10T20:14:56.526Z,2.20
2022-08-10T20:17:51.062Z,2.10
2022-08-10T20:20:54.653Z,2.10
2022-08-10T20:23:36.174Z,2.40
2022-08-10T20:26:25.011Z,2.43
2022-08-10T20:30:04.308Z,2.40
2022-08-10T20:32:55.716Z,2.30
2022-08-10T20:35:54.607Z,2.00
2022-08-10T20:39:14.427Z,2.57
2022-08-10T20:42:22.704Z,2.20
2022-08-10T20:45:19.586Z,2.17
2022-08-10T20:48:48.089Z,2.47
2022-08-10T20:51:58.269Z,2.43
2022-08-10T20:54:54.986Z,2.37
2022-08-10T20:58:19.945Z,2.53
2022-08-10T21:01:19.778Z,2.77
2022-08-10T21:04:31.471Z,2.70
2022-08-10T21:07:59.845Z,2.30
2022-08-10T21:11:15.532Z,2.33
2022-08-10T21:14:42.561Z,2.40
2022-08-10T21:18:47.353Z,2.00
2022-08-10T21:22:03.590Z,2.33
2022-08-10T21:24:55.659Z,2.27
2022-08-10T21:27:59.789Z,2.07
2022-08-10T21:31:05.262Z,2.00
2022-08-10T21:34:32.394Z,2.50
2022-08-10T21:38:04.293Z,2.60
2022-08-10T21:41:56.482Z,2.13
2022-08-10T21:45:58.073Z,2.30
2022-08-10T21:49:22.783Z,2.13
2022-08-10T21:52:53.886Z,2.47
2022-08-10T21:56:42.577Z,2.30
2022-08-10T22:00:08.241Z,1.97
2022-08-10T22:03:00.389Z,3.30
2022-08-10T22:05:57.226Z,2.27
2022-08-10T22:09:27.610Z,2.40
2022-08-10T22:12:24.906Z,2.63
2022-08-10T22:16:03.637Z,2.70
2022-08-10T22:19:01.381Z,2.13
2022-08-10T22:22:40.485Z,2.00
2022-08-10T22:26:36.001Z,2.30
2022-08-10T22:29:45.354Z,2.10
2022-08-10T22:33:10.966Z,2.30
2022-08-10T22:36:50.841Z,2.47
2022-08-10T22:40:29.142Z,2.20
2022-08-10T22:43:35.364Z,2.20
2022-08-10T22:46:40.192Z,2.60
2022-08-10T22:49:08.529Z,1.93
2022-08-10T22:52:20.430Z,2.10
2022-08-10T22:55:34.740Z,2.00
2022-08-10T22:58:21.150Z,2.03
2022-08-10T23:02:08.341Z,2.00
2022-08-10T23:04:56.306Z,2.07
2022-08-10T23:07:33.238Z,2.13
2022-08-10T23:10:14.985Z,2.33
2022-08-10T23:13:36.162Z,2.63
2022-08-10T23:16:42.628Z,2.23
2022-08-10T23:19:33.438Z,2.27
2022-08-10T23:22:10.506Z,2.40
2022-08-10T23:25:06.746Z,2.13
2022-08-10T23:27:41.895Z,2.10
2022-08-10T23:30:17.553Z,2.10
2022-08-10T23:32:59.744Z,2.00
2022-08-10T23:36:30.748Z,2.30
2022-08-10T23:38:25.312Z,2.53
2022-08-10T23:40:59.666Z,2.10
2022-08-10T23:44:02.879Z,1.77
2022-08-10T23:46:39.158Z,2.00
2022-08-10T23:49:12.948Z,2.17
2022-08-10T23:51:56.476Z,2.30
2022-08-10T23:54:28.001Z,2.13
2022-08-10T23:57:01.857Z,1.90
2022-08-10T23:59:34.332Z,2.07
